createdAt,value
2022-09-02T00:01:13.157Z,100798.19
2022-09-02T00:03:39.960Z,100800.19
2022-09-02T00:06:06.650Z,100796.31
2022-09-02T00:08:33.510Z,100791.81
2022-09-02T00:11:01.333Z,100791.00
2022-09-02T00:13:29.398Z,100782.63
2022-09-02T00:15:56.661Z,100790.72
2022-09-02T00:18:25.018Z,100781.41
2022-09-02T00:20:51.923Z,100785.28
2022-09-02T00:23:19.748Z,100778.03
2022-09-02T00:25:46.984Z,100777.50
2022-09-02T00:28:15.262Z,100783.69
2022-09-02T00:30:42.857Z,100780.00
2022-09-02T00:33:10.998Z,100777.00
2022-09-02T00:35:37.597Z,100771.91
2022-09-02T00:38:05.384Z,100769.41
2022-09-02T00:40:33.319Z,100763.81
2022-09-02T00:43:00.221Z,100759.00
2022-09-02T00:45:27.092Z,100755.72
2022-09-02T00:47:53.669Z,100751.31
2022-09-02T00:50:24.369Z,100752.53
2022-09-02T00:52:56.586Z,100755.31
2022-09-02T00:55:27.689Z,100747.22
2022-09-02T00:58:20.871Z,100747.00
2022-09-02T01:00:52.553Z,100747.63
2022-09-02T01:03:21.955Z,100741.91
2022-09-02T01:05:50.719Z,100745.72
2022-09-02T01:08:21.158Z,100739.22
2022-09-02T01:10:48.679Z,100739.44
2022-09-02T01:13:20.321Z,100728.63
2022-09-02T01:15:55.124Z,100733.13
2022-09-02T01:18:28.949Z,100726.63
2022-09-02T01:20:57.402Z,100732.22
2022-09-02T01:23:24.132Z,100721.56
2022-09-02T01:25:52.771Z,100717.53
2022-09-02T01:28:19.933Z,100718.44
2022-09-02T01:30:50.438Z,100715.34
2022-09-02T01:33:18.743Z,100707.44
2022-09-02T01:35:45.443Z,100713.63
2022-09-02T01:38:12.066Z,100708.44
2022-09-02T01:40:38.924Z,100707.25
2022-09-02T01:43:14.957Z,100702.47
2022-09-02T01:45:44.130Z,100694.66
2022-09-02T01:48:11.354Z,100692.16
2022-09-02T01:50:45.082Z,100687.28
2022-09-02T01:53:14.473Z,100688.78
2022-09-02T01:55:41.787Z,100685.28
2022-09-02T01:58:08.605Z,100683.47
2022-09-02T02:00:35.361Z,100677.00
2022-09-02T02:03:02.515Z,100680.75
2022-09-02T02:05:29.670Z,100672.47
2022-09-02T02:07:56.789Z,100672.47
2022-09-02T02:10:23.552Z,100662.09
2022-09-02T02:12:51.538Z,100663.69
2022-09-02T02:15:20.437Z,100665.28
2022-09-02T02:17:47.304Z,100667.59
2022-09-02T02:20:16.101Z,100660.69
2022-09-02T02:22:43.896Z,100660.28
2022-09-02T02:25:11.835Z,100661.28
2022-09-02T02:27:38.366Z,100657.69
2022-09-02T02:30:07.812Z,100655.72
2022-09-02T02:32:35.940Z,100650.59
2022-09-02T02:35:03.312Z,100648.81
2022-09-02T02:37:29.831Z,100655.09
2022-09-02T02:39:57.535Z,100654.22
2022-09-02T02:42:24.182Z,100650.31
2022-09-02T02:44:51.173Z,100649.81
2022-09-02T02:47:18.152Z,100640.94
2022-09-02T02:49:44.874Z,100646.91
2022-09-02T02:52:12.560Z,100642.53
2022-09-02T02:54:39.827Z,100645.72
2022-09-02T02:57:06.855Z,100635.44
2022-09-02T02:59:33.605Z,100643.00
2022-09-02T03:02:00.725Z,100634.44
2022-09-02T03:04:27.369Z,100639.03
2022-09-02T03:06:53.997Z,100629.16
2022-09-02T03:09:20.594Z,100627.31
2022-09-02T03:11:48.013Z,100625.63
2022-09-02T03:14:14.697Z,100627.53
2022-09-02T03:16:41.760Z,100622.44
2022-09-02T03:19:08.405Z,100616.06
2022-09-02T03:21:39.021Z,100617.66
2022-09-02T03:24:06.594Z,100613.56
2022-09-02T03:26:33.364Z,100610.28
2022-09-02T03:28:59.985Z,100622.16
2022-09-02T03:31:28.538Z,100617.84
2022-09-02T03:33:55.758Z,100607.75
2022-09-02T03:36:34.930Z,100611.75
2022-09-02T03:39:03.276Z,100615.38
2022-09-02T03:41:29.950Z,100607.38
2022-09-02T03:43:57.647Z,100615.47
2022-09-02T03:46:24.694Z,100614.75
2022-09-02T03:48:51.835Z,100614.16
2022-09-02T03:51:20.667Z,100611.34
2022-09-02T03:53:47.385Z,100603.97
2022-09-02T03:56:15.455Z,100596.41
2022-09-02T03:58:44.390Z,100594.19
2022-09-02T04:01:16.618Z,100599.28
2022-09-02T04:03:44.468Z,100596.59
2022-09-02T04:06:12.951Z,100595.59
2022-09-02T04:08:41.645Z,100596.41
2022-09-02T04:11:09.973Z,100597.00
2022-09-02T04:13:37.086Z,100601.16
2022-09-02T04:16:10.629Z,100588.38
2022-09-02T04:18:37.826Z,100577.28
2022-09-02T04:21:04.582Z,100580.75
2022-09-02T04:23:32.567Z,100581.38
2022-09-02T04:26:03.261Z,100574.09
2022-09-02T04:28:29.774Z,100584.56
2022-09-02T04:30:56.293Z,100577.06
2022-09-02T04:33:22.928Z,100580.75
2022-09-02T04:35:49.577Z,100578.69
2022-09-02T04:38:16.843Z,100579.38
2022-09-02T04:40:45.672Z,100578.59
2022-09-02T04:43:13.411Z,100585.28
2022-09-02T04:45:44.932Z,100575.56
2022-09-02T04:48:12.218Z,100581.59
2022-09-02T04:50:40.618Z,100577.47
2022-09-02T04:53:07.455Z,100585.06
2022-09-02T04:55:34.695Z,100577.59
2022-09-02T04:58:01.765Z,100567.59
2022-09-02T05:00:28.309Z,100575.78
2022-09-02T05:02:55.072Z,100569.13
2022-09-02T05:05:21.898Z,100571.09
2022-09-02T05:07:48.493Z,100567.13
2022-09-02T05:10:16.449Z,100577.00
2022-09-02T05:12:43.790Z,100570.81
2022-09-02T05:15:12.234Z,100570.41
2022-09-02T05:17:39.719Z,100569.41
2022-09-02T05:20:08.302Z,100572.56
2022-09-02T05:22:36.037Z,100571.88
2022-09-02T05:25:07.485Z,100575.47
2022-09-02T05:27:34.146Z,100569.81
2022-09-02T05:30:00.639Z,100562.59
2022-09-02T05:32:27.841Z,100566.69
2022-09-02T05:34:56.044Z,100564.00
2022-09-02T05:37:24.570Z,100559.63
2022-09-02T05:39:52.414Z,100571.00
2022-09-02T05:42:20.661Z,100564.41
2022-09-02T05:44:47.494Z,100567.28
2022-09-02T05:47:14.038Z,100569.19
2022-09-02T05:49:40.513Z,100561.63
2022-09-02T05:52:10.236Z,100562.09
2022-09-02T05:54:38.290Z,100568.22
2022-09-02T05:57:09.256Z,100567.81
2022-09-02T05:59:40.053Z,100561.63
2022-09-02T06:02:07.200Z,100557.56
2022-09-02T06:04:41.510Z,100559.94
2022-09-02T06:07:08.086Z,100569.91
2022-09-02T06:09:38.365Z,100560.94
2022-09-02T06:12:05.157Z,100564.72
2022-09-02T06:14:31.907Z,100562.75
2022-09-02T06:16:59.446Z,100559.75
2022-09-02T06:19:28.917Z,100562.03
2022-09-02T06:21:56.787Z,100557.72
2022-09-02T06:24:23.391Z,100559.03
2022-09-02T06:26:50.393Z,100561.81
2022-09-02T06:29:24.451Z,100550.44
2022-09-02T06:31:51.724Z,100558.13
2022-09-02T06:34:21.669Z,100544.31
2022-09-02T06:36:50.664Z,100549.59
2022-09-02T06:39:20.274Z,100549.44
2022-09-02T06:41:49.002Z,100542.84
2022-09-02T06:44:17.212Z,100536.63
2022-09-02T06:46:47.814Z,100538.84
2022-09-02T06:49:16.443Z,100536.00
2022-09-02T06:51:46.089Z,100540.13
2022-09-02T06:54:15.866Z,100540.56
2022-09-02T06:56:49.095Z,100541.34
2022-09-02T06:59:17.799Z,100532.31
2022-09-02T07:01:44.717Z,100528.97
2022-09-02T07:04:29.969Z,100532.16
2022-09-02T07:06:56.888Z,100529.75
2022-09-02T07:09:33.209Z,100525.16
2022-09-02T07:12:05.014Z,100524.78
2022-09-02T07:14:35.895Z,100530.06
2022-09-02T07:17:02.478Z,100525.84
2022-09-02T07:19:29.087Z,100532.88
2022-09-02T07:21:55.687Z,100526.72
2022-09-02T07:24:22.560Z,100526.50
2022-09-02T07:26:50.028Z,100527.09
2022-09-02T07:29:22.274Z,100515.72
2022-09-02T07:31:49.176Z,100517.44
2022-09-02T07:34:16.532Z,100516.94
2022-09-02T07:36:45.608Z,100511.41
2022-09-02T07:39:14.305Z,100512.81
2022-09-02T07:41:42.530Z,100506.47
2022-09-02T07:44:10.063Z,100506.75
2022-09-02T07:46:36.990Z,100510.16
2022-09-02T07:49:09.301Z,100508.41
2022-09-02T07:51:39.031Z,100504.31
2022-09-02T07:54:08.166Z,100506.16
2022-09-02T07:56:35.258Z,100512.31
2022-09-02T07:59:03.030Z,100503.19
2022-09-02T08:01:29.843Z,100500.19
2022-09-02T08:03:57.932Z,100499.31
2022-09-02T08:06:27.798Z,100492.38
2022-09-02T08:09:01.853Z,100494.09
2022-09-02T08:11:29.108Z,100486.72
2022-09-02T08:13:55.694Z,100495.03
2022-09-02T08:16:22.631Z,100488.94
2022-09-02T08:18:49.277Z,100481.78
2022-09-02T08:21:15.775Z,100485.34
2022-09-02T08:23:42.615Z,100483.69
2022-09-02T08:26:11.209Z,100491.22
2022-09-02T08:28:37.756Z,100485.91
2022-09-02T08:31:08.208Z,100482.66
2022-09-02T08:33:35.717Z,100486.81
2022-09-02T08:38:29.878Z,100485.38
2022-09-02T08:40:56.636Z,100483.97
2022-09-02T08:43:58.245Z,100476.28
2022-09-02T08:46:27.461Z,100477.88
2022-09-02T08:49:00.033Z,100476.28
2022-09-02T08:51:33.752Z,100486.66
2022-09-02T08:54:12.844Z,100471.97
2022-09-02T08:56:40.110Z,100468.78
2022-09-02T08:59:07.175Z,100455.84
2022-09-02T09:01:47.818Z,100462.59
2022-09-02T09:04:46.883Z,100450.69
2022-09-02T09:07:34.362Z,100446.53
2022-09-02T09:10:16.397Z,100454.63
2022-09-02T09:12:42.951Z,100455.59
2022-09-02T09:15:19.466Z,100449.88
2022-09-02T09:17:54.249Z,100448.41
2022-09-02T09:20:25.355Z,100448.44
2022-09-02T09:22:59.205Z,100444.31
2022-09-02T09:25:31.053Z,100442.22
2022-09-02T09:28:01.862Z,100443.16
2022-09-02T09:30:29.780Z,100440.78
2022-09-02T09:33:00.134Z,100447.22
2022-09-02T09:35:46.482Z,100438.63
2022-09-02T09:38:14.180Z,100429.59
2022-09-02T09:40:41.160Z,100434.91
2022-09-02T09:43:14.523Z,100431.88
2022-09-02T09:45:51.534Z,100428.22
2022-09-02T09:48:23.314Z,100415.06
2022-09-02T09:51:11.295Z,100411.94
2022-09-02T09:53:39.050Z,100410.50
2022-09-02T09:56:22.799Z,100395.97
2022-09-02T09:58:50.470Z,100395.31
2022-09-02T10:01:19.969Z,100399.66
2022-09-02T10:03:57.193Z,100391.94
2022-09-02T10:06:36.378Z,100394.91
2022-09-02T10:09:25.516Z,100390.34
2022-09-02T10:12:00.758Z,100389.53
2022-09-02T10:14:36.847Z,100383.53
2022-09-02T10:17:22.166Z,100380.53
2022-09-02T10:20:11.994Z,100376.16
2022-09-02T10:22:58.813Z,100370.66
2022-09-02T10:25:34.014Z,100373.59
2022-09-02T10:28:28.078Z,100372.06
2022-09-02T10:31:25.910Z,100366.72
2022-09-02T10:34:10.616Z,100366.94
2022-09-02T10:37:05.314Z,100372.66
2022-09-02T10:39:56.948Z,100357.25
2022-09-02T10:43:04.513Z,100349.44
2022-09-02T10:45:43.993Z,100340.41
2022-09-02T10:48:35.684Z,100345.28
2022-09-02T10:51:27.604Z,100347.13
2022-09-02T10:54:18.883Z,100339.19
2022-09-02T10:56:57.530Z,100340.97
2022-09-02T10:59:31.893Z,100341.56
2022-09-02T11:02:15.025Z,100340.16
2022-09-02T11:04:50.971Z,100337.50
2022-09-02T11:07:28.384Z,100329.88
2022-09-02T11:10:03.762Z,100337.09
2022-09-02T11:12:38.373Z,100333.78
2022-09-02T11:15:27.125Z,100328.56
2022-09-02T11:18:07.555Z,100326.19
2022-09-02T11:20:44.427Z,100323.78
2022-09-02T11:23:24.423Z,100320.69
2022-09-02T11:25:51.146Z,100317.41
2022-09-02T11:28:46.643Z,100317.63
2022-09-02T11:31:22.645Z,100314.81
2022-09-02T11:36:40.297Z,100313.03
2022-09-02T11:39:36.574Z,100310.13
2022-09-02T11:42:27.902Z,100308.25
2022-09-02T11:45:22.525Z,100297.78
2022-09-02T11:48:04.853Z,100290.81
2022-09-02T11:50:39.630Z,100277.41
2022-09-02T11:53:25.183Z,100277.56
2022-09-02T11:55:59.768Z,100276.63
2022-09-02T11:58:37.344Z,100270.31
2022-09-02T12:01:25.644Z,100265.13
2022-09-02T12:04:48.483Z,100264.91
2022-09-02T12:07:26.631Z,100266.22
2022-09-02T12:10:00.462Z,100261.50
2022-09-02T12:12:39.787Z,100256.88
2022-09-02T12:15:06.881Z,100250.25
2022-09-02T12:17:40.120Z,100243.88
2022-09-02T12:20:42.013Z,100241.50
2022-09-02T12:23:10.801Z,100244.06
2022-09-02T12:25:46.092Z,100239.41
2022-09-02T12:28:26.078Z,100236.06
2022-09-02T12:31:01.693Z,100229.13
2022-09-02T12:33:34.398Z,100233.34
2022-09-02T12:36:05.001Z,100234.78
2022-09-02T12:38:40.210Z,100232.03
2022-09-02T12:41:13.461Z,100235.31
2022-09-02T12:43:44.671Z,100228.59
2022-09-02T12:46:31.784Z,100230.31
2022-09-02T12:49:14.491Z,100228.75
2022-09-02T12:51:55.100Z,100219.78
2022-09-02T12:54:49.765Z,100219.66
2022-09-02T12:57:18.667Z,100219.00
2022-09-02T12:59:47.566Z,100217.34
2022-09-02T13:03:10.278Z,100214.50
2022-09-02T13:05:58.453Z,100216.31
2022-09-02T13:09:01.746Z,100212.28
2022-09-02T13:11:56.701Z,100208.91
2022-09-02T13:14:54.845Z,100214.00
2022-09-02T13:17:37.067Z,100203.00
2022-09-02T13:20:37.977Z,100206.66
2022-09-02T13:23:38.740Z,100215.34
2022-09-02T13:26:48.363Z,100204.50
2022-09-02T13:29:44.397Z,100207.47
2022-09-02T13:32:16.726Z,100200.09
2022-09-02T13:34:45.892Z,100201.88
2022-09-02T13:37:37.115Z,100196.34
2022-09-02T13:40:25.698Z,100193.16
2022-09-02T13:42:54.856Z,100193.88
2022-09-02T13:45:24.328Z,100197.31
2022-09-02T13:47:57.223Z,100180.91
2022-09-02T13:50:27.650Z,100176.97
2022-09-02T13:55:58.441Z,100169.66
2022-09-02T13:58:31.299Z,100172.81
2022-09-02T14:01:17.078Z,100173.81
2022-09-02T14:03:50.275Z,100161.44
2022-09-02T14:06:20.698Z,100165.03
2022-09-02T14:08:54.646Z,100152.66
2022-09-02T14:11:21.654Z,100149.06
2022-09-02T14:13:50.399Z,100138.56
2022-09-02T14:16:35.090Z,100138.53
2022-09-02T14:19:15.181Z,100132.31
2022-09-02T14:21:49.398Z,100126.78
2022-09-02T14:24:21.192Z,100126.03
2022-09-02T14:26:50.520Z,100115.63
2022-09-02T14:29:18.954Z,100114.03
2022-09-02T14:31:46.723Z,100118.66
2022-09-02T14:34:33.923Z,100111.63
2022-09-02T14:37:01.217Z,100121.34
2022-09-02T14:39:27.858Z,100116.97
2022-09-02T14:41:56.100Z,100113.63
2022-09-02T14:44:35.826Z,100118.81
2022-09-02T14:47:06.261Z,100110.28
2022-09-02T14:49:41.787Z,100107.59
2022-09-02T14:52:28.816Z,100102.31
2022-09-02T14:54:57.979Z,100101.00
2022-09-02T14:57:32.623Z,100102.16
2022-09-02T15:00:05.389Z,100100.81
2022-09-02T15:02:34.153Z,100087.22
2022-09-02T15:05:03.411Z,100095.38
2022-09-02T15:07:30.575Z,100086.09
2022-09-02T15:09:57.191Z,100079.03
2022-09-02T15:12:46.780Z,100080.78
2022-09-02T15:15:13.404Z,100080.63
2022-09-02T15:17:39.927Z,100074.94
2022-09-02T15:20:08.535Z,100065.78
2022-09-02T15:22:38.556Z,100069.53
2022-09-02T15:25:08.014Z,100064.16
2022-09-02T15:27:35.503Z,100075.50
2022-09-02T15:30:02.052Z,100063.63
2022-09-02T15:32:28.572Z,100057.47
2022-09-02T15:34:55.081Z,100052.94
2022-09-02T15:37:21.588Z,100049.78
2022-09-02T15:39:50.341Z,100045.59
2022-09-02T15:42:18.336Z,100042.94
2022-09-02T15:44:45.562Z,100053.41
2022-09-02T15:47:12.072Z,100046.81
2022-09-02T15:49:38.614Z,100042.78
2022-09-02T15:52:06.030Z,100037.94
2022-09-02T15:54:32.583Z,100038.03
2022-09-02T15:56:59.762Z,100043.75
2022-09-02T15:59:27.437Z,100035.28
2022-09-02T16:01:56.506Z,100036.97
2022-09-02T16:04:23.508Z,100041.66
2022-09-02T16:06:54.813Z,100038.41
2022-09-02T16:09:21.477Z,100025.94
2022-09-02T16:11:50.713Z,100029.38
2022-09-02T16:14:20.913Z,100025.06
2022-09-02T16:16:49.274Z,100022.97
2022-09-02T16:19:16.246Z,100024.53
2022-09-02T16:21:42.849Z,100018.25
2022-09-02T16:24:09.517Z,100022.34
2022-09-02T16:26:38.585Z,100020.84
2022-09-02T16:29:07.757Z,100021.09
2022-09-02T16:31:38.407Z,100016.09
2022-09-02T16:34:07.262Z,100019.25
2022-09-02T16:36:36.653Z,100010.66
2022-09-02T16:39:05.261Z,100014.84
2022-09-02T16:41:37.668Z,100008.94
2022-09-02T16:44:07.138Z,100009.97
2022-09-02T16:46:35.945Z,100013.16
2022-09-02T16:49:03.507Z,100005.56
2022-09-02T16:51:33.419Z,100004.88
2022-09-02T16:54:02.332Z,99996.16
2022-09-02T16:56:30.623Z,99998.34
2022-09-02T16:59:01.858Z,99997.41
2022-09-02T17:01:32.326Z,99992.31
2022-09-02T17:04:00.322Z,99984.44
2022-09-02T17:06:28.000Z,99979.78
2022-09-02T17:08:54.633Z,99983.06
2022-09-02T17:11:23.818Z,99978.22
2022-09-02T17:13:56.226Z,99977.06
2022-09-02T17:16:25.614Z,99969.75
2022-09-02T17:18:53.827Z,99968.63
2022-09-02T17:21:47.854Z,99966.03
2022-09-02T17:24:15.617Z,99965.22
2022-09-02T17:26:46.709Z,99956.41
2022-09-02T17:29:47.080Z,99957.44
2022-09-02T17:32:06.233Z,99957.00
2022-09-02T17:34:33.842Z,99951.81
2022-09-02T17:37:00.451Z,99949.28
2022-09-02T17:39:27.088Z,99943.19
2022-09-02T17:42:00.026Z,99947.25
2022-09-02T17:44:35.927Z,99947.56
2022-09-02T17:47:18.687Z,99944.75
2022-09-02T17:49:45.583Z,99944.66
2022-09-02T17:52:15.378Z,99937.28
2022-09-02T17:54:42.764Z,99936.41
2022-09-02T17:57:48.410Z,99931.28
2022-09-02T18:00:22.544Z,99929.63
2022-09-02T18:03:31.168Z,99928.41
2022-09-02T18:06:07.209Z,99932.91
2022-09-02T18:08:54.780Z,99934.28
2022-09-02T18:11:22.476Z,99925.34
2022-09-02T18:13:55.245Z,99933.03
2022-09-02T18:16:39.823Z,99927.84
2022-09-02T18:19:37.549Z,99922.66
2022-09-02T18:22:10.384Z,99924.00
2022-09-02T18:24:48.387Z,99919.91
2022-09-02T18:27:30.459Z,99916.34
2022-09-02T18:30:12.033Z,99915.44
2022-09-02T18:32:51.933Z,99917.53
2022-09-02T18:35:29.286Z,99919.44
2022-09-02T18:38:18.147Z,99914.03
2022-09-02T18:40:57.010Z,99914.56
2022-09-02T18:43:42.495Z,99911.31
2022-09-02T18:46:12.049Z,99909.94
2022-09-02T18:48:39.357Z,99911.06
2022-09-02T18:51:16.448Z,99912.22
2022-09-02T18:53:48.694Z,99918.06
2022-09-02T18:56:18.247Z,99912.22
2022-09-02T18:58:56.415Z,99922.56
2022-09-02T19:01:27.277Z,99919.44
2022-09-02T19:03:53.874Z,99923.34
2022-09-02T19:06:23.620Z,99914.13
2022-09-02T19:08:58.576Z,99921.34
2022-09-02T19:11:25.889Z,99915.03
2022-09-02T19:14:00.870Z,99904.72
2022-09-02T19:16:32.024Z,99911.72
2022-09-02T19:18:58.899Z,99901.00
2022-09-02T19:21:47.303Z,99906.28
2022-09-02T19:24:21.370Z,99906.16
2022-09-02T19:26:49.010Z,99906.34
2022-09-02T19:29:17.561Z,99902.22
2022-09-02T19:31:46.669Z,99908.94
2022-09-02T19:34:16.321Z,99899.88
2022-09-02T19:36:47.009Z,99906.19
2022-09-02T19:39:13.555Z,99902.09
2022-09-02T19:41:40.505Z,99896.22
2022-09-02T19:44:07.001Z,99897.44
2022-09-02T19:47:15.298Z,99903.19
2022-09-02T19:49:20.383Z,99893.00
2022-09-02T19:51:47.538Z,99898.63
2022-09-02T19:54:15.225Z,99897.25
2022-09-02T19:56:42.649Z,99890.72
2022-09-02T19:59:10.394Z,99893.44
2022-09-02T20:01:38.291Z,99887.63
2022-09-02T20:04:06.261Z,99891.78
2022-09-02T20:06:33.111Z,99890.00
2022-09-02T20:08:59.672Z,99896.09
2022-09-02T20:11:27.618Z,99894.03
2022-09-02T20:13:54.202Z,99893.84
2022-09-02T20:16:23.763Z,99895.41
2022-09-02T20:18:53.079Z,99896.09
2022-09-02T20:21:43.214Z,99887.50
2022-09-02T20:24:12.405Z,99886.59
2022-09-02T20:26:51.983Z,99887.84
2022-09-02T20:29:40.021Z,99881.66
2022-09-02T20:32:34.042Z,99877.84
2022-09-02T20:35:11.558Z,99874.41
2022-09-02T20:38:07.415Z,99875.19
2022-09-02T20:40:45.899Z,99874.28
2022-09-02T20:43:35.125Z,99864.16
2022-09-02T20:46:13.820Z,99868.63
2022-09-02T20:48:46.614Z,99863.75
2022-09-02T20:51:29.942Z,99871.06
2022-09-02T20:54:11.119Z,99867.22
2022-09-02T20:57:00.876Z,99874.56
2022-09-02T21:00:02.327Z,99867.88
2022-09-02T21:02:33.492Z,99862.69
2022-09-02T21:05:22.565Z,99858.34
2022-09-02T21:07:56.972Z,99858.06
2022-09-02T21:10:47.747Z,99855.34
2022-09-02T21:13:14.201Z,99857.13
2022-09-02T21:15:54.990Z,99853.63
2022-09-02T21:18:48.807Z,99852.25
2022-09-02T21:21:35.253Z,99858.50
2022-09-02T21:24:05.269Z,99859.34
2022-09-02T21:26:58.433Z,99854.59
2022-09-02T21:29:37.779Z,99849.84
2022-09-02T21:32:19.403Z,99853.66
2022-09-02T21:34:55.641Z,99851.94
2022-09-02T21:37:23.202Z,99854.47
2022-09-02T21:39:55.647Z,99843.41
2022-09-02T21:42:32.358Z,99847.69
2022-09-02T21:45:10.862Z,99843.56
2022-09-02T21:47:57.362Z,99840.56
2022-09-02T21:50:28.946Z,99844.25
2022-09-02T21:53:01.225Z,99834.88
2022-09-02T21:55:46.259Z,99839.66
2022-09-02T21:58:18.783Z,99832.97
2022-09-02T22:01:13.771Z,99832.47
2022-09-02T22:03:48.030Z,99834.09
2022-09-02T22:06:33.155Z,99834.72
2022-09-02T22:09:14.234Z,99835.03
2022-09-02T22:12:14.770Z,99833.09
2022-09-02T22:15:07.842Z,99829.75
2022-09-02T22:17:51.290Z,99827.06
2022-09-02T22:20:22.241Z,99829.91
2022-09-02T22:22:55.832Z,99819.75
2022-09-02T22:25:24.533Z,99822.44
2022-09-02T22:27:57.250Z,99812.88
2022-09-02T22:30:23.789Z,99811.94
2022-09-02T22:32:57.058Z,99815.00
2022-09-02T22:35:27.806Z,99811.16
2022-09-02T22:38:10.646Z,99807.22
2022-09-02T22:40:46.210Z,99815.63
2022-09-02T22:43:18.633Z,99812.66
2022-09-02T22:46:12.543Z,99800.75
2022-09-02T22:49:11.846Z,99801.84
2022-09-02T22:52:09.093Z,99792.16
2022-09-02T22:54:35.789Z,99785.84
2022-09-02T22:57:02.229Z,99789.88
2022-09-02T22:59:51.491Z,99783.06
2022-09-02T23:02:27.973Z,99784.63
2022-09-02T23:05:30.942Z,99783.84
2022-09-02T23:07:57.430Z,99784.38
2022-09-02T23:10:26.970Z,99781.66
2022-09-02T23:13:36.233Z,99788.78
2022-09-02T23:16:27.328Z,99786.09
2022-09-02T23:19:16.454Z,99779.56
2022-09-02T23:21:54.367Z,99780.16
2022-09-02T23:24:45.103Z,99776.66
2022-09-02T23:27:11.631Z,99777.34
2022-09-02T23:29:41.323Z,99769.44
2022-09-02T23:32:29.501Z,99779.78
2022-09-02T23:35:09.251Z,99769.94
2022-09-02T23:38:16.173Z,99769.16
2022-09-02T23:40:45.821Z,99763.31
2022-09-02T23:43:18.418Z,99765.22
2022-09-02T23:45:47.412Z,99762.84
2022-09-02T23:48:13.936Z,99757.00
2022-09-02T23:51:10.444Z,99766.50
2022-09-02T23:53:49.570Z,99767.94
2022-09-02T23:56:37.887Z,99776.81
2022-09-02T23:59:05.224Z,99774.63
